King of Scandinavia — OVOL2 — position and weather

sailwx.info

Track history (hours):
 
Tides and Currents Weather Stations Pressure Air Temp Water Temp Dewpoint Dewpoint Depression Visibility Wind Speed Wind Dir Waves Ship Positions

King of Scandinavia

Ship's website: http://www.dfds.co.uk/DSW/EN/OnBoard/na/KING.htm

Last reported at 2014-Dec-17 19:34 UTC. Time now 2014-Dec-17 19:57 UTC.
Position N 54°40' W 000°28'.

Length 166 m; beam 27.6 m; draft 6.2 m.

Type: Passenger vessel. MMSI: 220449000.

Date/timePositionNaut miles runAvg speedWind from/ knotsBaromVisibWave heightAir tempDewpointWater temp
2014-Dec-17 19:34N 54°40' W 000°28'1817.7
2014-Dec-17 18:33N 54°50' W 000°54'1817.6
2014-Dec-17 17:33N 54°59' W 001°19'12 1.2
2014-Dec-17 07:33N 54°52' W 001°01'1414.2
2014-Dec-17 06:33N 54°45' W 000°40'1616.2
2014-Dec-17 05:33N 54°36' W 000°16'1717.1
2014-Dec-17 04:33N 54°28' E 000°09'1716.9
2014-Dec-17 03:32N 54°18' E 000°33'15016.7
2014-Dec-16 18:33N 52°48' E 003°55'1615.9
2014-Dec-16 17:34N 52°37' E 004°14'1514.6
2014-Dec-16 16:34N 52°28' E 004°33'1 1.4
2014-Dec-16 15:33N 52°28' E 004°35'0 0.0
2014-Dec-16 14:33N 52°28' E 004°35'0 0.0
2014-Dec-16 13:33N 52°28' E 004°35'0 0.0
2014-Dec-16 12:33N 52°28' E 004°35'0 0.0
2014-Dec-16 11:33N 52°28' E 004°35'0 0.0
2014-Dec-16 10:33N 52°28' E 004°35'0 0.0
2014-Dec-16 09:33N 52°28' E 004°35'0 0.0
2014-Dec-16 08:33N 52°28' E 004°35'1111.3
2014-Dec-16 07:34N 52°34' E 004°20'1515.0
2014-Dec-16 06:33N 52°44' E 004°01'14617.5
2014-Dec-15 22:13N 54°11' E 000°45'1218.3
2014-Dec-15 21:33N 54°18' E 000°28'1818.3
2014-Dec-15 20:34N 54°28' E 000°02'1818.1
2014-Dec-15 19:34N 54°38' W 000°24'1818.0
2014-Dec-15 18:33N 54°48' W 000°50'1817.9
2014-Dec-15 17:33N 54°58' W 001°16'6 0.6
2014-Dec-15 08:07N 54°55' W 001°07'916.0
2014-Dec-15 07:32N 54°50' W 000°53'1616.1
2014-Dec-15 06:31N 54°42' W 000°29'1616.4
2014-Dec-15 05:33N 54°33' W 000°06'1716.6
2014-Dec-15 04:33N 54°24' E 000°17'1616.4
2014-Dec-15 03:33N 54°15' E 000°41'14015.6
2014-Dec-14 18:34N 52°51' E 003°50'1616.3
2014-Dec-14 17:33N 52°40' E 004°10'1616.4
2014-Dec-14 16:33N 52°29' E 004°30'3 3.5
2014-Dec-14 15:33N 52°28' E 004°35'0 0.0
2014-Dec-14 14:33N 52°28' E 004°35'0 0.0
2014-Dec-14 13:30N 52°28' E 004°35'0 0.0
2014-Dec-14 12:33N 52°28' E 004°35'0 0.0
2014-Dec-14 11:33N 52°28' E 004°35'0 0.0
2014-Dec-14 10:33N 52°28' E 004°35'0 0.0
2014-Dec-14 09:33N 52°28' E 004°35'1 0.7
2014-Dec-14 08:33N 52°28' E 004°34'1515.0
2014-Dec-14 07:33N 52°37' E 004°15'1616.3
2014-Dec-14 06:33N 52°48' E 003°55'14217.3
2014-Dec-13 22:19N 54°14' E 000°43'1317.8
2014-Dec-13 21:33N 54°21' E 000°24'1818.1
2014-Dec-13 20:33N 54°31' W 000°02'1818.2
2014-Dec-13 19:33N 54°41' W 000°29'1818.1
2014-Dec-13 18:33N 54°50' W 000°56'1818.0
2014-Dec-13 17:33N 55°00' W 001°22'17 1.7
2014-Dec-13 07:33N 54°52' W 000°57'2215.2
2014-Dec-13 06:08N 54°40' W 000°26'915.2
2014-Dec-13 05:33N 54°35' W 000°14'1615.5
2014-Dec-13 04:33N 54°26' E 000°09'1616.2
2014-Dec-13 03:33N 54°17' E 000°32'15016.6
2014-Dec-12 18:33N 52°48' E 003°54'1818.3
2014-Dec-12 17:33N 52°36' E 004°16'1414.2
2014-Dec-12 16:34N 52°28' E 004°35'0 0.0
2014-Dec-12 15:33N 52°28' E 004°35'0 0.0
2014-Dec-12 14:33N 52°28' E 004°35'0 0.0
2014-Dec-12 13:33N 52°28' E 004°35'0 0.0
2014-Dec-12 12:33N 52°28' E 004°35'0 0.0
2014-Dec-12 11:33N 52°28' E 004°35'4 3.9
2014-Dec-12 10:34N 52°28' E 004°29'3 2.6
2014-Dec-12 09:33N 52°30' E 004°26'4 4.2
2014-Dec-12 08:33N 52°34' E 004°23'5 5.0
2014-Dec-12 07:33N 52°37' E 004°17'1515.3
2014-Dec-12 06:33N 52°46' E 003°57'14117.2
2014-Dec-11 22:24N 54°11' E 000°49'1417.2
2014-Dec-11 21:34N 54°19' E 000°29'1817.6
2014-Dec-11 20:34N 54°28' E 000°03'1818.2
2014-Dec-11 19:33N 54°38' W 000°24'1918.5
2014-Dec-11 18:33N 54°48' W 000°52'1918.8
2014-Dec-11 17:33N 54°59' W 001°18'13 1.4
2014-Dec-11 08:33N 54°51' W 001°01'3115.7
2014-Dec-11 06:34N 54°29' W 000°23'1615.7
2014-Dec-11 05:34N 54°17' W 000°06'1615.6
2014-Dec-11 04:33N 54°04' E 000°11'1616.3
2014-Dec-11 03:33N 53°52' E 000°29'5717.2
2014-Dec-11 00:15N 53°06' E 001°25'1115.9
2014-Dec-10 23:33N 52°57' E 001°35'1616.1
2014-Dec-10 22:33N 52°47' E 001°56'7316.7
2014-Dec-10 18:10N 52°32' E 003°54'1016.7
2014-Dec-10 17:34N 52°31' E 004°11'1515.2
2014-Dec-10 16:34N 52°28' E 004°35'0 0.1
2014-Dec-10 15:32N 52°28' E 004°35'0 0.0
2014-Dec-10 14:32N 52°28' E 004°35'0 0.0
2014-Dec-10 13:32N 52°28' E 004°35'0 0.0
2014-Dec-10 12:32N 52°28' E 004°35'0 0.0
2014-Dec-10 11:32N 52°28' E 004°35'0 0.0
2014-Dec-10 10:32N 52°28' E 004°35'0 0.0
2014-Dec-10 09:32N 52°28' E 004°35'0 0.3
2014-Dec-10 08:33N 52°28' E 004°35'1615.8
2014-Dec-10 07:33N 52°29' E 004°09'1918.1
2014-Dec-10 06:31N 52°26' E 003°39'6318.8
2014-Dec-10 03:09N 52°45' E 001°60'1118.0
2014-Dec-10 02:33N 52°51' E 001°45'1818.2
2014-Dec-10 01:33N 53°05' E 001°26'4317.8
2014-Dec-09 23:09N 53°41' E 000°47'1117.8
2014-Dec-09 22:33N 53°49' E 000°35'1818.1
2014-Dec-09 21:34N 54°02' E 000°15'1818.2
2014-Dec-09 20:33N 54°16' W 000°05'1918.7
2014-Dec-09 19:34N 54°31' W 000°25'1918.9
2014-Dec-09 18:33N 54°44' W 000°49'1919.0
2014-Dec-09 17:33N 54°56' W 001°14'5 0.5
2014-Dec-09 08:05N 54°55' W 001°06'1018.0
2014-Dec-09 07:33N 54°50' W 000°52'1817.9
2014-Dec-09 06:33N 54°40' W 000°26'1818.0
2014-Dec-09 05:33N 54°30' W 000°00'1817.6
2014-Dec-09 04:33N 54°20' E 000°25'15416.2
2014-Dec-08 19:05N 52°49' E 003°53'815.5
2014-Dec-08 18:33N 52°43' E 004°03'1414.3
2014-Dec-08 17:34N 52°34' E 004°20'1110.3
2014-Dec-08 16:31N 52°28' E 004°35'0 0.0
2014-Dec-08 15:31N 52°28' E 004°35'0 0.0
2014-Dec-08 14:31N 52°28' E 004°35'0 0.0
2014-Dec-08 13:31N 52°28' E 004°35'0 0.0
2014-Dec-08 12:31N 52°28' E 004°35'0 0.0
2014-Dec-08 11:31N 52°28' E 004°35'0 0.0
2014-Dec-08 10:31N 52°28' E 004°35'0 0.0
2014-Dec-08 09:31N 52°28' E 004°35'0 0.0
2014-Dec-08 08:33N 52°28' E 004°35'1111.0
2014-Dec-08 07:34N 52°34' E 004°20'1414.2
2014-Dec-08 06:33N 52°43' E 004°03'14717.5
2014-Dec-07 22:10N 54°13' E 000°47'1118.7
2014-Dec-07 21:34N 54°19' E 000°30'1818.4
2014-Dec-07 20:34N 54°29' E 000°03'  
Track history (hours):
 
Tides and Currents Weather Stations Pressure Air Temp Water Temp Dewpoint Dewpoint Depression Visibility Wind Speed Wind Dir Waves Ship Positions

King of Scandinavia

Ship's website: http://www.dfds.co.uk/DSW/EN/OnBoard/na/KING.htm

Last reported at 2014-Dec-17 19:34 UTC. Time now 2014-Dec-17 19:57 UTC.
Position N 54°40' W 000°28'.

Length 166 m; beam 27.6 m; draft 6.2 m.

Type: Passenger vessel. MMSI: 220449000.

Date/timePositionNaut miles runAvg speedWind from/ knotsBaromVisibWave heightAir tempDewpointWater temp
2014-Dec-17 19:34N 54°40' W 000°28'1817.7
2014-Dec-17 18:33N 54°50' W 000°54'1817.6
2014-Dec-17 17:33N 54°59' W 001°19'12 1.2
2014-Dec-17 07:33N 54°52' W 001°01'1414.2
2014-Dec-17 06:33N 54°45' W 000°40'1616.2
2014-Dec-17 05:33N 54°36' W 000°16'1717.1
2014-Dec-17 04:33N 54°28' E 000°09'1716.9
2014-Dec-17 03:32N 54°18' E 000°33'15016.7
2014-Dec-16 18:33N 52°48' E 003°55'1615.9
2014-Dec-16 17:34N 52°37' E 004°14'1514.6
2014-Dec-16 16:34N 52°28' E 004°33'1 1.4
2014-Dec-16 15:33N 52°28' E 004°35'0 0.0
2014-Dec-16 14:33N 52°28' E 004°35'0 0.0
2014-Dec-16 13:33N 52°28' E 004°35'0 0.0
2014-Dec-16 12:33N 52°28' E 004°35'0 0.0
2014-Dec-16 11:33N 52°28' E 004°35'0 0.0
2014-Dec-16 10:33N 52°28' E 004°35'0 0.0
2014-Dec-16 09:33N 52°28' E 004°35'0 0.0
2014-Dec-16 08:33N 52°28' E 004°35'1111.3
2014-Dec-16 07:34N 52°34' E 004°20'1515.0
2014-Dec-16 06:33N 52°44' E 004°01'14617.5
2014-Dec-15 22:13N 54°11' E 000°45'1218.3
2014-Dec-15 21:33N 54°18' E 000°28'1818.3
2014-Dec-15 20:34N 54°28' E 000°02'1818.1
2014-Dec-15 19:34N 54°38' W 000°24'1818.0
2014-Dec-15 18:33N 54°48' W 000°50'1817.9
2014-Dec-15 17:33N 54°58' W 001°16'6 0.6
2014-Dec-15 08:07N 54°55' W 001°07'916.0
2014-Dec-15 07:32N 54°50' W 000°53'1616.1
2014-Dec-15 06:31N 54°42' W 000°29'1616.4
2014-Dec-15 05:33N 54°33' W 000°06'1716.6
2014-Dec-15 04:33N 54°24' E 000°17'1616.4
2014-Dec-15 03:33N 54°15' E 000°41'14015.6
2014-Dec-14 18:34N 52°51' E 003°50'1616.3
2014-Dec-14 17:33N 52°40' E 004°10'1616.4
2014-Dec-14 16:33N 52°29' E 004°30'3 3.5
2014-Dec-14 15:33N 52°28' E 004°35'0 0.0
2014-Dec-14 14:33N 52°28' E 004°35'0 0.0
2014-Dec-14 13:30N 52°28' E 004°35'0 0.0
2014-Dec-14 12:33N 52°28' E 004°35'0 0.0
2014-Dec-14 11:33N 52°28' E 004°35'0 0.0
2014-Dec-14 10:33N 52°28' E 004°35'0 0.0
2014-Dec-14 09:33N 52°28' E 004°35'1 0.7
2014-Dec-14 08:33N 52°28' E 004°34'1515.0
2014-Dec-14 07:33N 52°37' E 004°15'1616.3
2014-Dec-14 06:33N 52°48' E 003°55'14217.3
2014-Dec-13 22:19N 54°14' E 000°43'1317.8
2014-Dec-13 21:33N 54°21' E 000°24'1818.1
2014-Dec-13 20:33N 54°31' W 000°02'1818.2
2014-Dec-13 19:33N 54°41' W 000°29'1818.1
2014-Dec-13 18:33N 54°50' W 000°56'1818.0
2014-Dec-13 17:33N 55°00' W 001°22'17 1.7
2014-Dec-13 07:33N 54°52' W 000°57'2215.2
2014-Dec-13 06:08N 54°40' W 000°26'915.2
2014-Dec-13 05:33N 54°35' W 000°14'1615.5
2014-Dec-13 04:33N 54°26' E 000°09'1616.2
2014-Dec-13 03:33N 54°17' E 000°32'15016.6
2014-Dec-12 18:33N 52°48' E 003°54'1818.3
2014-Dec-12 17:33N 52°36' E 004°16'1414.2
2014-Dec-12 16:34N 52°28' E 004°35'0 0.0
2014-Dec-12 15:33N 52°28' E 004°35'0 0.0
2014-Dec-12 14:33N 52°28' E 004°35'0 0.0
2014-Dec-12 13:33N 52°28' E 004°35'0 0.0
2014-Dec-12 12:33N 52°28' E 004°35'0 0.0
2014-Dec-12 11:33N 52°28' E 004°35'4 3.9
2014-Dec-12 10:34N 52°28' E 004°29'3 2.6
2014-Dec-12 09:33N 52°30' E 004°26'4 4.2
2014-Dec-12 08:33N 52°34' E 004°23'5 5.0
2014-Dec-12 07:33N 52°37' E 004°17'1515.3
2014-Dec-12 06:33N 52°46' E 003°57'14117.2
2014-Dec-11 22:24N 54°11' E 000°49'1417.2
2014-Dec-11 21:34N 54°19' E 000°29'1817.6
2014-Dec-11 20:34N 54°28' E 000°03'1818.2
2014-Dec-11 19:33N 54°38' W 000°24'1918.5
2014-Dec-11 18:33N 54°48' W 000°52'1918.8
2014-Dec-11 17:33N 54°59' W 001°18'13 1.4
2014-Dec-11 08:33N 54°51' W 001°01'3115.7
2014-Dec-11 06:34N 54°29' W 000°23'1615.7
2014-Dec-11 05:34N 54°17' W 000°06'1615.6
2014-Dec-11 04:33N 54°04' E 000°11'1616.3
2014-Dec-11 03:33N 53°52' E 000°29'5717.2
2014-Dec-11 00:15N 53°06' E 001°25'1115.9
2014-Dec-10 23:33N 52°57' E 001°35'1616.1
2014-Dec-10 22:33N 52°47' E 001°56'7316.7
2014-Dec-10 18:10N 52°32' E 003°54'1016.7
2014-Dec-10 17:34N 52°31' E 004°11'1515.2
2014-Dec-10 16:34N 52°28' E 004°35'0 0.1
2014-Dec-10 15:32N 52°28' E 004°35'0 0.0
2014-Dec-10 14:32N 52°28' E 004°35'0 0.0
2014-Dec-10 13:32N 52°28' E 004°35'0 0.0
2014-Dec-10 12:32N 52°28' E 004°35'0 0.0
2014-Dec-10 11:32N 52°28' E 004°35'0 0.0
2014-Dec-10 10:32N 52°28' E 004°35'0 0.0
2014-Dec-10 09:32N 52°28' E 004°35'0 0.3
2014-Dec-10 08:33N 52°28' E 004°35'1615.8
2014-Dec-10 07:33N 52°29' E 004°09'1918.1
2014-Dec-10 06:31N 52°26' E 003°39'6318.8
2014-Dec-10 03:09N 52°45' E 001°60'1118.0
2014-Dec-10 02:33N 52°51' E 001°45'1818.2
2014-Dec-10 01:33N 53°05' E 001°26'4317.8
2014-Dec-09 23:09N 53°41' E 000°47'1117.8
2014-Dec-09 22:33N 53°49' E 000°35'1818.1
2014-Dec-09 21:34N 54°02' E 000°15'1818.2
2014-Dec-09 20:33N 54°16' W 000°05'1918.7
2014-Dec-09 19:34N 54°31' W 000°25'1918.9
2014-Dec-09 18:33N 54°44' W 000°49'1919.0
2014-Dec-09 17:33N 54°56' W 001°14'5 0.5
2014-Dec-09 08:05N 54°55' W 001°06'1018.0
2014-Dec-09 07:33N 54°50' W 000°52'1817.9
2014-Dec-09 06:33N 54°40' W 000°26'1818.0
2014-Dec-09 05:33N 54°30' W 000°00'1817.6
2014-Dec-09 04:33N 54°20' E 000°25'15416.2
2014-Dec-08 19:05N 52°49' E 003°53'815.5
2014-Dec-08 18:33N 52°43' E 004°03'1414.3
2014-Dec-08 17:34N 52°34' E 004°20'1110.3
2014-Dec-08 16:31N 52°28' E 004°35'0 0.0
2014-Dec-08 15:31N 52°28' E 004°35'0 0.0
2014-Dec-08 14:31N 52°28' E 004°35'0 0.0
2014-Dec-08 13:31N 52°28' E 004°35'0 0.0
2014-Dec-08 12:31N 52°28' E 004°35'0 0.0
2014-Dec-08 11:31N 52°28' E 004°35'0 0.0
2014-Dec-08 10:31N 52°28' E 004°35'0 0.0
2014-Dec-08 09:31N 52°28' E 004°35'0 0.0
2014-Dec-08 08:33N 52°28' E 004°35'1111.0
2014-Dec-08 07:34N 52°34' E 004°20'1414.2
2014-Dec-08 06:33N 52°43' E 004°03'14717.5
2014-Dec-07 22:10N 54°13' E 000°47'1118.7
2014-Dec-07 21:34N 54°19' E 000°30'1818.4
2014-Dec-07 20:34N 54°29' E 000°03'  

Dump ship's entire track history